OMFJ/FJR METAR and TAF weather

Enter ICAO airport designator
Station Type Date Time Source
OMFJ METAR 2021/03/08 03:00 UTC NOAA

OMFJ 080300Z 31016KT 9999 FEW030 19/12 Q1013 A2993


Station Type Date Time Source
OMFJ Decoded METAR 2021/03/08 03:00 UTC NOAA

Fujairah, United Arab Emirates (OMFJ) 25-06N 056-20E 28M
Mar 07, 2021 - 10:00 PM EST / 2021.03.08 0300 UTC
Wind: from the NW (310 degrees) at 18 MPH (16 KT):0
Visibility: greater than 7 mile(s):0
Sky conditions: mostly clear
Temperature: 66 F (19 C)
Dew Point: 53 F (12 C)
Relative Humidity: 63%
Pressure (altimeter): 29.93 in. Hg (1013 hPa)
ob: OMFJ 080300Z 31016KT 9999 FEW030 19/12 Q1013 A2993
cycle: 3

Station Type Date Time Source
OMFJ TAF 2021/03/07 18:06 UTC NOAA

TAF TAF OMFJ 071700Z 0718/0824 29016KT 8000 NAC PROB30 0720/0812 30020G30 4000 BLDU

Example: see airport list